createdAt,value
2019-01-26T00:02:28.177Z,5.25
2019-01-26T00:04:56.613Z,2.58
2019-01-26T00:07:25.287Z,1.77
2019-01-26T00:09:53.686Z,5.30
2019-01-26T00:12:22.113Z,0.82
2019-01-26T00:14:50.527Z,3.10
2019-01-26T00:17:18.934Z,3.05
2019-01-26T00:19:47.350Z,4.40
2019-01-26T00:22:15.779Z,4.65
2019-01-26T00:24:44.176Z,3.92
2019-01-26T00:27:12.934Z,5.08
2019-01-26T00:29:41.348Z,3.92
2019-01-26T00:32:09.843Z,2.15
2019-01-26T00:34:38.320Z,1.57
2019-01-26T00:37:07.064Z,1.20
2019-01-26T00:39:35.553Z,4.55
2019-01-26T00:42:03.983Z,6.95
2019-01-26T00:44:32.693Z,1.35
2019-01-26T00:47:01.093Z,2.87
2019-01-26T00:49:29.502Z,2.58
2019-01-26T00:51:58.213Z,2.17
2019-01-26T00:54:26.629Z,3.50
2019-01-26T00:56:55.411Z,1.62
2019-01-26T00:59:24.127Z,1.92
2019-01-26T01:01:52.557Z,5.03
2019-01-26T01:04:20.968Z,3.30
2019-01-26T01:06:49.381Z,2.22
2019-01-26T01:09:17.800Z,2.10
2019-01-26T01:11:46.279Z,6.12
2019-01-26T01:14:14.759Z,6.08
2019-01-26T01:16:43.481Z,1.07
2019-01-26T01:19:12.310Z,5.28
2019-01-26T01:21:41.125Z,2.90
2019-01-26T01:24:09.903Z,5.65
2019-01-26T01:26:38.316Z,4.40
2019-01-26T01:29:06.715Z,3.33
2019-01-26T01:31:35.137Z,2.55
2019-01-26T01:34:03.541Z,6.25
2019-01-26T01:36:32.341Z,3.62
2019-01-26T01:39:00.735Z,4.25
2019-01-26T01:41:29.161Z,3.50
2019-01-26T01:43:57.563Z,3.72
2019-01-26T01:46:26.266Z,4.37
2019-01-26T01:48:54.750Z,2.15
2019-01-26T01:51:23.474Z,5.45
2019-01-26T01:53:51.887Z,6.27
2019-01-26T01:56:20.290Z,6.60
2019-01-26T01:58:55.378Z,2.92
2019-01-26T02:01:23.786Z,2.98
2019-01-26T02:03:52.474Z,4.83
2019-01-26T02:06:20.889Z,7.33
2019-01-26T02:08:49.585Z,5.72
2019-01-26T02:11:18.294Z,7.00
2019-01-26T02:13:46.747Z,5.37
2019-01-26T02:16:15.150Z,6.00
2019-01-26T02:18:43.551Z,2.45
2019-01-26T02:21:11.989Z,6.97
2019-01-26T02:23:40.721Z,3.95
2019-01-26T02:26:09.137Z,3.85
2019-01-26T02:32:06.711Z,2.02
2019-01-26T02:34:35.372Z,3.58
2019-01-26T02:37:03.845Z,2.40
2019-01-26T02:39:32.249Z,2.65
2019-01-26T02:42:00.680Z,3.85
2019-01-26T02:44:29.415Z,1.98
2019-01-26T02:46:58.319Z,3.65
2019-01-26T02:49:26.925Z,2.80
2019-01-26T02:51:55.638Z,5.72
2019-01-26T02:54:24.358Z,4.60
2019-01-26T02:56:52.782Z,6.23
2019-01-26T02:59:21.193Z,6.00
2019-01-26T03:01:49.623Z,3.30
2019-01-26T03:04:18.018Z,3.00
2019-01-26T03:06:46.435Z,3.92
2019-01-26T03:09:15.187Z,2.45
2019-01-26T03:11:43.628Z,4.45
2019-01-26T03:14:12.023Z,4.53
2019-01-26T03:16:40.442Z,8.40
2019-01-26T03:19:08.875Z,4.40
2019-01-26T03:21:37.611Z,5.83
2019-01-26T03:24:06.202Z,7.53
2019-01-26T03:26:34.630Z,7.40
2019-01-26T03:29:03.338Z,6.58
2019-01-26T03:31:32.071Z,4.87
2019-01-26T03:34:00.549Z,4.92
2019-01-26T03:36:28.958Z,7.37
2019-01-26T03:38:57.369Z,8.15
2019-01-26T03:41:26.075Z,4.85
2019-01-26T03:43:54.789Z,5.47
2019-01-26T03:46:23.211Z,4.65
2019-01-26T03:48:51.621Z,9.68
2019-01-26T03:51:20.047Z,5.80
2019-01-26T03:53:48.507Z,7.67
2019-01-26T03:56:16.983Z,4.47
2019-01-26T03:58:45.419Z,5.85
2019-01-26T04:01:14.135Z,5.85
2019-01-26T04:03:42.566Z,6.30
2019-01-26T04:06:11.254Z,7.62
2019-01-26T04:08:39.974Z,4.50
2019-01-26T04:11:08.398Z,5.50
2019-01-26T04:13:36.827Z,7.87
2019-01-26T04:16:05.571Z,5.55
2019-01-26T04:18:34.384Z,4.45
2019-01-26T04:21:03.105Z,8.58
2019-01-26T04:23:31.834Z,4.25
2019-01-26T04:26:00.253Z,6.75
2019-01-26T04:28:28.928Z,6.10
2019-01-26T04:30:57.352Z,5.97
2019-01-26T04:33:25.766Z,4.87
2019-01-26T04:35:54.458Z,7.25
2019-01-26T04:38:22.869Z,3.33
2019-01-26T04:40:51.564Z,6.67
2019-01-26T04:43:20.282Z,3.37
2019-01-26T04:45:48.737Z,5.80
2019-01-26T04:48:17.502Z,7.60
2019-01-26T04:50:45.923Z,4.10
2019-01-26T04:53:14.611Z,6.25
2019-01-26T04:55:43.044Z,4.37
2019-01-26T04:58:11.830Z,3.58
2019-01-26T05:00:40.253Z,6.62
2019-01-26T05:03:08.673Z,6.72
2019-01-26T05:05:37.350Z,9.90
2019-01-26T05:08:05.777Z,6.10
2019-01-26T05:10:34.246Z,6.00
2019-01-26T05:13:02.969Z,6.17
2019-01-26T05:15:31.688Z,6.22
2019-01-26T05:18:00.130Z,6.45
2019-01-26T05:20:28.787Z,3.80
2019-01-26T05:22:57.202Z,6.00
2019-01-26T05:25:25.927Z,7.57
2019-01-26T05:27:54.360Z,5.85
2019-01-26T05:30:25.488Z,6.75
2019-01-26T05:32:54.295Z,6.50
2019-01-26T05:35:22.882Z,6.30
2019-01-26T05:37:51.374Z,2.20
2019-01-26T05:40:20.144Z,8.58
2019-01-26T05:42:48.599Z,8.55
2019-01-26T05:45:19.700Z,6.62
2019-01-26T05:47:49.615Z,3.30
2019-01-26T05:50:20.237Z,8.80
2019-01-26T05:52:48.634Z,8.85
2019-01-26T05:55:17.137Z,7.80
2019-01-26T05:57:45.823Z,7.30
2019-01-26T06:00:23.977Z,7.97
2019-01-26T06:02:52.398Z,8.05
2019-01-26T06:05:20.986Z,4.08
2019-01-26T06:07:50.124Z,4.65
2019-01-26T06:10:18.677Z,10.05
2019-01-26T06:12:47.111Z,6.85
2019-01-26T06:15:15.643Z,8.68
2019-01-26T06:17:44.065Z,6.15
2019-01-26T06:20:14.730Z,10.43
2019-01-26T06:22:43.232Z,9.55
2019-01-26T06:25:14.783Z,7.55
2019-01-26T06:27:43.571Z,13.13
2019-01-26T06:30:14.842Z,7.72
2019-01-26T06:32:43.555Z,10.68
2019-01-26T06:35:12.109Z,7.05
2019-01-26T06:37:40.524Z,9.73
2019-01-26T06:40:11.929Z,5.17
2019-01-26T06:42:40.489Z,8.80
2019-01-26T06:45:11.075Z,3.40
2019-01-26T06:47:39.506Z,8.90
2019-01-26T06:50:11.050Z,7.03
2019-01-26T06:52:39.480Z,10.28
2019-01-26T06:55:09.854Z,8.33
2019-01-26T06:57:38.547Z,7.53
2019-01-26T07:00:12.883Z,4.60
2019-01-26T07:02:41.607Z,6.58
2019-01-26T07:05:12.781Z,7.80
2019-01-26T07:07:41.219Z,7.58
2019-01-26T07:10:10.462Z,2.70
2019-01-26T07:12:38.878Z,6.78
2019-01-26T07:15:11.841Z,8.03
2019-01-26T07:17:40.270Z,9.65
2019-01-26T07:20:12.311Z,6.17
2019-01-26T07:22:41.145Z,9.40
2019-01-26T07:25:09.941Z,6.37
2019-01-26T07:27:38.356Z,7.58
2019-01-26T07:30:12.519Z,8.65
2019-01-26T07:32:41.005Z,6.80
2019-01-26T07:35:09.509Z,3.43
2019-01-26T07:37:38.311Z,9.95
2019-01-26T07:40:10.089Z,11.85
2019-01-26T07:42:38.509Z,10.10
2019-01-26T07:45:10.047Z,5.83
2019-01-26T07:47:38.450Z,5.70
2019-01-26T07:50:09.970Z,10.17
2019-01-26T07:52:38.404Z,6.55
2019-01-26T07:55:09.560Z,9.30
2019-01-26T07:57:38.048Z,5.65
2019-01-26T08:00:18.358Z,8.33
2019-01-26T08:02:46.852Z,6.58
2019-01-26T08:05:15.336Z,5.10
2019-01-26T08:07:44.048Z,6.90
2019-01-26T08:10:15.687Z,5.60
2019-01-26T08:12:44.117Z,5.10
2019-01-26T08:15:15.758Z,4.85
2019-01-26T08:17:44.631Z,5.80
2019-01-26T08:20:16.043Z,9.83
2019-01-26T08:22:44.454Z,7.28
2019-01-26T08:25:13.328Z,2.83
2019-01-26T08:27:41.746Z,5.25
2019-01-26T08:30:16.181Z,6.50
2019-01-26T08:32:44.616Z,1.57
2019-01-26T08:35:15.842Z,6.37
2019-01-26T08:37:44.656Z,4.95
2019-01-26T08:40:15.326Z,2.75
2019-01-26T08:42:43.839Z,6.97
2019-01-26T08:45:14.161Z,4.05
2019-01-26T08:47:43.045Z,6.60
2019-01-26T08:50:17.172Z,16.50
2019-01-26T08:52:45.643Z,6.45
2019-01-26T08:55:18.445Z,6.97
2019-01-26T08:57:47.992Z,5.42
2019-01-26T09:00:19.253Z,5.17
2019-01-26T09:02:53.571Z,3.85
2019-01-26T09:05:23.922Z,3.17
2019-01-26T09:07:52.420Z,4.53
2019-01-26T09:10:20.836Z,4.08
2019-01-26T09:12:49.542Z,3.87
2019-01-26T09:15:17.977Z,2.75
2019-01-26T09:17:46.378Z,3.60
2019-01-26T09:20:18.373Z,2.72
2019-01-26T09:22:46.803Z,3.37
2019-01-26T09:25:15.282Z,3.58
2019-01-26T09:27:44.174Z,5.28
2019-01-26T09:30:18.154Z,3.40
2019-01-26T09:32:46.580Z,3.83
2019-01-26T09:35:15.099Z,3.98
2019-01-26T09:37:43.664Z,4.37
2019-01-26T09:40:18.080Z,3.42
2019-01-26T09:42:46.891Z,3.05
2019-01-26T09:45:19.427Z,3.63
2019-01-26T09:47:48.276Z,4.75
2019-01-26T09:50:17.439Z,3.58
2019-01-26T09:52:45.872Z,4.28
2019-01-26T09:55:19.043Z,3.92
2019-01-26T09:57:47.691Z,3.12
2019-01-26T10:00:19.283Z,2.65
2019-01-26T10:02:47.762Z,5.22
2019-01-26T10:05:16.522Z,3.40
2019-01-26T10:07:44.954Z,6.67
2019-01-26T10:10:20.207Z,3.55
2019-01-26T10:12:48.694Z,5.55
2019-01-26T10:15:20.189Z,7.28
2019-01-26T10:17:48.941Z,3.53
2019-01-26T10:20:23.074Z,3.33
2019-01-26T10:22:51.492Z,8.67
2019-01-26T10:25:20.486Z,2.73
2019-01-26T10:27:49.042Z,3.87
2019-01-26T10:30:31.626Z,6.25
2019-01-26T10:33:00.125Z,4.47
2019-01-26T10:35:46.659Z,4.72
2019-01-26T10:38:15.185Z,4.50
2019-01-26T10:40:54.366Z,4.33
2019-01-26T10:43:24.500Z,4.73
2019-01-26T10:45:52.909Z,2.10
2019-01-26T10:48:21.350Z,4.35
2019-01-26T10:50:49.778Z,2.95
2019-01-26T10:53:18.178Z,3.95
2019-01-26T10:55:46.667Z,4.60
2019-01-26T10:58:15.453Z,4.15
2019-01-26T11:00:43.889Z,3.70
2019-01-26T11:03:12.615Z,2.53
2019-01-26T11:05:41.052Z,4.42
2019-01-26T11:08:09.526Z,3.33
2019-01-26T11:10:37.969Z,3.37
2019-01-26T11:13:06.473Z,3.60
2019-01-26T11:15:34.993Z,3.00
2019-01-26T11:18:03.414Z,3.37
2019-01-26T11:20:32.086Z,2.80
2019-01-26T11:23:02.153Z,3.37
2019-01-26T11:25:30.530Z,2.42
2019-01-26T11:27:59.022Z,3.60
2019-01-26T11:30:29.065Z,2.15
2019-01-26T11:32:57.492Z,1.45
2019-01-26T11:35:26.189Z,3.02
2019-01-26T11:37:54.607Z,3.20
2019-01-26T11:40:23.080Z,2.60
2019-01-26T11:42:52.033Z,3.08
2019-01-26T11:45:28.542Z,4.17
2019-01-26T11:47:59.151Z,3.17
2019-01-26T11:50:35.561Z,3.10
2019-01-26T11:53:04.577Z,4.30
2019-01-26T11:55:34.736Z,4.92
2019-01-26T11:58:03.180Z,6.13
2019-01-26T12:00:49.837Z,4.30
2019-01-26T12:03:19.957Z,5.40
2019-01-26T12:05:50.002Z,4.67
2019-01-26T12:08:18.441Z,7.67
2019-01-26T12:10:47.159Z,4.35
2019-01-26T12:13:15.888Z,4.55
2019-01-26T12:15:44.327Z,5.17
2019-01-26T12:18:12.726Z,6.67
2019-01-26T12:20:41.134Z,5.47
2019-01-26T12:23:09.562Z,4.67
2019-01-26T12:25:37.979Z,5.28
2019-01-26T12:28:06.573Z,4.62
2019-01-26T12:30:35.101Z,4.70
2019-01-26T12:33:03.592Z,2.60
2019-01-26T12:35:32.002Z,2.27
2019-01-26T12:38:00.427Z,3.05
2019-01-26T12:40:28.835Z,4.17
2019-01-26T12:42:57.248Z,3.00
2019-01-26T12:45:25.937Z,2.20
2019-01-26T12:47:54.343Z,4.83
2019-01-26T12:50:23.078Z,5.65
2019-01-26T12:52:51.881Z,3.50
2019-01-26T12:55:21.194Z,3.20
2019-01-26T12:57:50.003Z,3.50
2019-01-26T13:00:21.700Z,6.25
2019-01-26T13:02:50.320Z,5.37
2019-01-26T13:05:19.113Z,4.95
2019-01-26T13:07:47.933Z,3.58
2019-01-26T13:10:28.390Z,2.77
2019-01-26T13:12:56.877Z,4.85
2019-01-26T13:15:25.444Z,3.70
2019-01-26T13:17:53.853Z,5.40
2019-01-26T13:20:22.550Z,3.80
2019-01-26T13:22:51.022Z,3.95
2019-01-26T13:25:19.794Z,7.03
2019-01-26T13:27:48.480Z,5.12
2019-01-26T13:30:19.866Z,5.65
2019-01-26T13:32:48.275Z,2.87
2019-01-26T13:35:17.172Z,6.90
2019-01-26T13:37:45.677Z,6.58
2019-01-26T13:40:17.150Z,3.65
2019-01-26T13:42:45.859Z,5.35
2019-01-26T13:45:16.203Z,4.45
2019-01-26T13:47:44.867Z,5.10
2019-01-26T13:50:13.950Z,2.20
2019-01-26T13:52:42.743Z,2.90
2019-01-26T13:55:17.202Z,3.15
2019-01-26T13:57:45.743Z,3.27
2019-01-26T14:00:20.339Z,4.85
2019-01-26T14:02:48.761Z,5.20
2019-01-26T14:05:17.176Z,3.30
2019-01-26T14:07:45.891Z,2.33
2019-01-26T14:10:22.025Z,3.30
2019-01-26T14:12:50.486Z,4.20
2019-01-26T14:15:21.445Z,4.80
2019-01-26T14:17:49.940Z,4.80
2019-01-26T14:20:24.285Z,4.20
2019-01-26T14:22:53.102Z,3.70
2019-01-26T14:25:21.564Z,3.80
2019-01-26T14:27:50.315Z,4.20
2019-01-26T14:30:27.716Z,4.22
2019-01-26T14:32:56.238Z,2.22
2019-01-26T14:35:25.042Z,2.37
2019-01-26T14:37:53.442Z,3.30
2019-01-26T14:40:22.106Z,3.90
2019-01-26T14:42:54.475Z,2.83
2019-01-26T14:45:20.755Z,1.72
2019-01-26T14:47:49.173Z,3.77
2019-01-26T14:50:18.771Z,1.80
2019-01-26T14:52:47.337Z,2.80
2019-01-26T14:55:18.834Z,2.27
2019-01-26T14:57:47.561Z,3.85
2019-01-26T15:00:22.002Z,2.37
2019-01-26T15:02:50.410Z,2.77
2019-01-26T15:05:18.812Z,2.87
2019-01-26T15:07:47.626Z,3.05
2019-01-26T15:10:16.163Z,3.60
2019-01-26T15:12:44.599Z,2.25
2019-01-26T15:15:16.239Z,3.20
2019-01-26T15:17:45.023Z,3.05
2019-01-26T15:20:16.594Z,2.85
2019-01-26T15:22:45.315Z,3.95
2019-01-26T15:28:43.125Z,1.50
2019-01-26T15:31:11.880Z,2.47
2019-01-26T15:33:40.332Z,2.92
2019-01-26T15:36:09.331Z,2.25
2019-01-26T15:38:38.118Z,1.53
2019-01-26T15:41:06.532Z,2.17
2019-01-26T15:43:34.956Z,2.75
2019-01-26T15:46:03.727Z,2.27
2019-01-26T15:48:32.142Z,2.92
2019-01-26T15:51:00.627Z,2.85
2019-01-26T15:53:29.030Z,1.87
2019-01-26T15:55:59.198Z,2.60
2019-01-26T15:58:27.638Z,2.40
2019-01-26T16:00:56.069Z,2.50
2019-01-26T16:03:24.480Z,1.67
2019-01-26T16:05:54.231Z,1.30
2019-01-26T16:08:22.801Z,1.30
2019-01-26T16:10:51.551Z,2.25
2019-01-26T16:13:21.109Z,1.05
2019-01-26T16:15:50.204Z,1.00
2019-01-26T16:18:19.042Z,0.98
2019-01-26T16:20:47.847Z,1.15
2019-01-26T16:23:16.287Z,1.67
2019-01-26T16:25:45.066Z,2.02
2019-01-26T16:28:13.542Z,1.80
2019-01-26T16:30:42.282Z,1.50
2019-01-26T16:33:10.993Z,2.60
2019-01-26T16:35:39.693Z,1.37
2019-01-26T16:38:08.163Z,1.72
2019-01-26T16:40:37.039Z,3.65
2019-01-26T16:43:05.710Z,2.00
2019-01-26T16:45:38.645Z,1.47
2019-01-26T16:48:09.207Z,3.25
2019-01-26T16:50:37.733Z,2.30
2019-01-26T16:53:06.266Z,2.77
2019-01-26T16:55:34.681Z,3.17
2019-01-26T16:58:03.252Z,4.40
2019-01-26T17:00:34.969Z,1.87
2019-01-26T17:03:03.661Z,2.60
2019-01-26T17:05:32.346Z,0.90
2019-01-26T17:08:01.062Z,3.08
2019-01-26T17:10:34.074Z,3.62
2019-01-26T17:13:00.424Z,2.23
2019-01-26T17:15:28.881Z,2.55
2019-01-26T17:17:57.920Z,2.70
2019-01-26T17:20:35.149Z,2.85
2019-01-26T17:23:02.224Z,3.50
2019-01-26T17:25:31.030Z,4.30
2019-01-26T17:27:59.444Z,0.90
2019-01-26T17:30:33.902Z,1.90
2019-01-26T17:33:07.343Z,3.65
2019-01-26T17:35:32.446Z,4.35
2019-01-26T17:38:00.862Z,1.52
2019-01-26T17:40:29.283Z,2.60
2019-01-26T17:42:58.059Z,3.55
2019-01-26T17:45:26.612Z,2.58
2019-01-26T17:47:55.198Z,3.20
2019-01-26T17:50:28.326Z,3.60
2019-01-26T17:52:56.761Z,3.05
2019-01-26T17:55:25.158Z,3.87
2019-01-26T17:57:53.570Z,1.85
2019-01-26T18:00:43.812Z,2.98
2019-01-26T18:03:12.523Z,3.60
2019-01-26T18:05:41.011Z,2.98
2019-01-26T18:08:09.448Z,3.77
2019-01-26T18:10:37.909Z,4.42
2019-01-26T18:13:06.966Z,2.47
2019-01-26T18:15:35.970Z,2.60
2019-01-26T18:18:04.688Z,3.25
2019-01-26T18:20:33.502Z,4.08
2019-01-26T18:23:02.992Z,3.17
2019-01-26T18:25:33.193Z,3.30
2019-01-26T18:28:01.606Z,2.70
2019-01-26T18:30:31.565Z,4.37
2019-01-26T18:33:00.243Z,3.50
2019-01-26T18:35:28.711Z,3.90
2019-01-26T18:37:57.143Z,4.47
2019-01-26T18:40:27.188Z,3.33
2019-01-26T18:42:55.736Z,2.40
2019-01-26T18:45:26.573Z,2.60
2019-01-26T18:47:55.225Z,1.77
2019-01-26T18:50:38.730Z,2.12
2019-01-26T18:53:07.165Z,2.83
2019-01-26T18:55:35.851Z,4.65
2019-01-26T18:58:04.563Z,2.77
2019-01-26T19:00:38.641Z,2.42
2019-01-26T19:03:13.378Z,3.40
2019-01-26T19:05:41.823Z,2.25
2019-01-26T19:08:10.304Z,2.25
2019-01-26T19:10:38.779Z,3.60
2019-01-26T19:13:07.219Z,2.22
2019-01-26T19:15:35.701Z,2.02
2019-01-26T19:18:04.196Z,2.25
2019-01-26T19:20:32.906Z,1.77
2019-01-26T19:23:01.626Z,1.00
2019-01-26T19:25:30.117Z,2.80
2019-01-26T19:27:58.858Z,1.80
2019-01-26T19:30:27.529Z,2.50
2019-01-26T19:32:55.940Z,2.92
2019-01-26T19:35:24.676Z,3.65
2019-01-26T19:37:53.088Z,3.62
2019-01-26T19:40:23.393Z,3.42
2019-01-26T19:42:51.883Z,1.72
2019-01-26T19:45:24.360Z,3.33
2019-01-26T19:47:52.772Z,2.02
2019-01-26T19:50:23.898Z,3.75
2019-01-26T19:52:52.813Z,4.03
2019-01-26T19:55:23.213Z,3.20
2019-01-26T19:57:51.982Z,3.15
2019-01-26T20:00:20.541Z,4.05
2019-01-26T20:02:48.981Z,3.70
2019-01-26T20:05:20.401Z,4.20
2019-01-26T20:07:49.185Z,2.25
2019-01-26T20:10:18.881Z,3.77
2019-01-26T20:12:47.540Z,3.05
2019-01-26T20:15:25.970Z,3.55
2019-01-26T20:17:54.674Z,3.12
2019-01-26T20:20:28.810Z,4.10
2019-01-26T20:22:59.051Z,3.55
2019-01-26T20:25:27.759Z,2.98
2019-01-26T20:27:56.230Z,2.58
2019-01-26T20:30:27.647Z,3.40
2019-01-26T20:32:56.341Z,3.20
2019-01-26T20:35:24.813Z,2.35
2019-01-26T20:37:53.466Z,4.20
2019-01-26T20:40:23.162Z,3.37
2019-01-26T20:42:51.601Z,2.75
2019-01-26T20:45:22.787Z,3.72
2019-01-26T20:47:51.500Z,2.95
2019-01-26T20:50:20.214Z,3.02
2019-01-26T20:52:48.926Z,4.80
2019-01-26T20:55:17.584Z,4.47
2019-01-26T20:57:46.350Z,2.35
2019-01-26T21:00:26.891Z,4.33
2019-01-26T21:02:55.377Z,2.43
2019-01-26T21:05:23.806Z,2.57
2019-01-26T21:07:52.286Z,3.97
2019-01-26T21:10:30.375Z,2.08
2019-01-26T21:12:59.340Z,3.35
2019-01-26T21:15:27.807Z,2.20
2019-01-26T21:17:56.245Z,5.72
2019-01-26T21:20:26.573Z,2.30
2019-01-26T21:22:55.083Z,1.77
2019-01-26T21:25:23.672Z,3.45
2019-01-26T21:27:52.146Z,4.37
2019-01-26T21:30:22.908Z,2.47
2019-01-26T21:32:51.339Z,2.80
2019-01-26T21:35:20.083Z,2.20
2019-01-26T21:37:48.781Z,2.27
2019-01-26T21:40:26.407Z,3.40
2019-01-26T21:42:55.092Z,3.10
2019-01-26T21:45:24.215Z,2.42
2019-01-26T21:47:53.037Z,1.70
2019-01-26T21:50:23.690Z,0.80
2019-01-26T21:52:52.124Z,2.87
2019-01-26T21:55:20.607Z,1.65
2019-01-26T21:57:49.095Z,1.80
2019-01-26T22:00:23.201Z,1.90
2019-01-26T22:02:51.622Z,3.35
2019-01-26T22:05:20.072Z,2.27
2019-01-26T22:07:50.524Z,2.45
2019-01-26T22:10:24.558Z,1.90
2019-01-26T22:12:53.366Z,1.60
2019-01-26T22:15:22.953Z,1.85
2019-01-26T22:17:51.712Z,2.22
2019-01-26T22:20:23.210Z,1.60
2019-01-26T22:22:51.628Z,1.82
2019-01-26T22:25:20.692Z,1.30
2019-01-26T22:27:49.443Z,2.00
2019-01-26T22:30:32.676Z,1.12
2019-01-26T22:33:01.181Z,1.20
2019-01-26T22:35:29.878Z,1.40
2019-01-26T22:37:58.872Z,1.75
2019-01-26T22:40:29.451Z,1.30
2019-01-26T22:42:58.141Z,1.45
2019-01-26T22:45:26.891Z,1.20
2019-01-26T22:47:55.613Z,1.00
2019-01-26T22:50:26.295Z,2.10
2019-01-26T22:52:55.086Z,1.00
2019-01-26T22:55:23.635Z,1.02
2019-01-26T22:57:52.186Z,1.27
2019-01-26T23:00:55.828Z,1.60
2019-01-26T23:03:30.589Z,1.30
2019-01-26T23:06:26.843Z,1.80
2019-01-26T23:08:57.461Z,1.20
2019-01-26T23:11:48.726Z,0.90
2019-01-26T23:14:20.536Z,1.40
2019-01-26T23:17:16.082Z,0.80
2019-01-26T23:19:56.513Z,0.80
2019-01-26T23:22:30.842Z,1.20
2019-01-26T23:25:23.733Z,1.52
2019-01-26T23:28:01.356Z,0.90
2019-01-26T23:30:33.051Z,0.75
2019-01-26T23:33:02.189Z,0.70
2019-01-26T23:35:31.011Z,0.80
2019-01-26T23:37:59.764Z,1.40
2019-01-26T23:40:28.241Z,0.90
2019-01-26T23:42:56.962Z,0.80
2019-01-26T23:45:25.362Z,1.25
2019-01-26T23:47:53.789Z,1.20
2019-01-26T23:50:22.203Z,1.15
2019-01-26T23:52:50.875Z,0.80
2019-01-26T23:55:19.282Z,1.10
2019-01-26T23:57:47.717Z,1.30
